Terminal Aerodrome Forecast
Issued by NWS Charleston, WV

Current Version | Previous Version | Graphics & Text | Print | Product List | Glossary On
Versions: 1 2 3 4 5 6 7 8 9 10 11 12 13 14 15 16 17 18 19 20 21 22 23
000
FTUS41 KRLX 240200 AAA
TAFEKN
TAF AMD
KEKN 240207Z 2402/2424 29012G19KT P6SM BKN050
     FM240300 30008KT P6SM BKN040
     FM240700 29004KT P6SM SCT040
     FM241000 29007KT P6SM SCT250
     FM241800 29012KT P6SM SCT035=

USA.gov is the U.S. government's official web portal to all federal, state and local government web resources and services.